Time;durP1;ratioP1;P1;durP2;ratioP2;P2;SDS_P1;SDS_P2;PMS_P1;PMS_P2;Temp;Humidity;BMP_temperature;BMP_pressure;BME280_temperature;BME280_humidity;BME280_pressure;Samples;Min_cycle;Max_cycle;Signal;HPM_P1;HPM_P2
2023/04/18 00:02:17;;;;;;;13.20;11.73;;;6.80;99.90;;;;;;4878255;29;20600;-77
2023/04/18 00:04:46;;;;;;;13.17;11.57;;;6.80;99.90;;;;;;4878844;29;20671;-78
2023/04/18 00:07:16;;;;;;;12.63;11.33;;;6.80;99.90;;;;;;4878918;29;20476;-77
2023/04/18 00:09:44;;;;;;;13.10;11.80;;;6.70;99.90;;;;;;4889120;29;20245;-75
2023/04/18 00:12:38;;;;;;;13.47;12.07;;;6.70;99.90;;;;;;4897819;29;20230;-76
2023/04/18 00:15:08;;;;;;;14.47;11.90;;;6.70;99.90;;;;;;4898869;29;20212;-77
2023/04/18 00:17:39;;;;;;;14.03;12.63;;;6.70;99.90;;;;;;4895375;29;20237;-76
2023/04/18 00:20:11;;;;;;;13.83;12.50;;;6.70;99.90;;;;;;4879433;29;20322;-78
2023/04/18 00:22:41;;;;;;;14.23;12.73;;;6.70;99.90;;;;;;4887129;29;20195;-79
2023/04/18 00:25:10;;;;;;;14.23;12.53;;;6.60;99.90;;;;;;4916784;29;20207;-78
2023/04/18 00:27:39;;;;;;;14.13;12.63;;;6.60;99.90;;;;;;4884775;29;20298;-78
2023/04/18 00:30:08;;;;;;;15.10;12.60;;;6.50;99.90;;;;;;4879340;29;20741;-75
2023/04/18 00:32:36;;;;;;;13.60;12.10;;;6.50;99.90;;;;;;4879335;29;20603;-76
2023/04/18 00:35:05;;;;;;;14.10;12.37;;;6.50;99.90;;;;;;4879234;29;20304;-77
2023/04/18 00:37:36;;;;;;;13.67;12.27;;;6.50;99.90;;;;;;4879462;29;20236;-75
2023/04/18 00:40:05;;;;;;;14.83;12.93;;;6.50;99.90;;;;;;4879473;29;20214;-74
2023/04/18 00:42:33;;;;;;;14.60;13.10;;;6.50;99.90;;;;;;4878920;29;20219;-73
2023/04/18 00:45:01;;;;;;;16.03;12.87;;;6.50;99.90;;;;;;4878624;29;20253;-74
2023/04/18 00:47:29;;;;;;;14.27;12.77;;;6.60;99.90;;;;;;4879310;29;20218;-73
2023/04/18 00:49:58;;;;;;;14.80;13.30;;;6.60;99.90;;;;;;4896837;29;20665;-75
2023/04/18 00:52:28;;;;;;;15.30;13.70;;;6.60;99.90;;;;;;4887883;29;20326;-74
2023/04/18 00:54:57;;;;;;;15.33;12.93;;;6.60;99.90;;;;;;4878926;29;20313;-74
2023/04/18 00:57:25;;;;;;;15.50;13.90;;;6.60;99.90;;;;;;4879005;29;20242;-73
2023/04/18 00:59:53;;;;;;;16.00;14.40;;;6.60;99.90;;;;;;4879088;29;20290;-72
2023/04/18 01:02:21;;;;;;;14.83;13.33;;;6.60;99.90;;;;;;4877910;29;20677;-77
2023/04/18 01:04:51;;;;;;;16.53;14.23;;;6.60;99.90;;;;;;4881598;29;20218;-78
2023/04/18 01:07:19;;;;;;;15.03;13.53;;;6.60;99.90;;;;;;4879653;29;20305;-78
2023/04/18 01:09:47;;;;;;;15.53;13.93;;;6.60;99.90;;;;;;4884830;29;20313;-75
2023/04/18 01:12:16;;;;;;;15.63;14.03;;;6.60;99.90;;;;;;4878217;29;20226;-75
2023/04/18 01:14:44;;;;;;;15.73;14.10;;;6.60;99.90;;;;;;4878961;29;20352;-76
2023/04/18 01:17:12;;;;;;;16.77;14.37;;;6.60;99.90;;;;;;4878662;29;20695;-74
2023/04/18 01:19:41;;;;;;;16.93;15.13;;;6.50;99.90;;;;;;4888739;29;20233;-75
2023/04/18 01:22:10;;;;;;;15.37;13.77;;;6.60;99.90;;;;;;4897237;29;20296;-74
2023/04/18 01:24:39;;;;;;;17.00;15.23;;;6.50;99.90;;;;;;4898269;29;20281;-77
2023/04/18 01:27:10;;;;;;;16.97;14.50;;;6.50;99.90;;;;;;4897653;29;20344;-79
2023/04/18 01:29:40;;;;;;;17.80;15.90;;;6.50;99.90;;;;;;4878681;29;20214;-76
2023/04/18 01:32:08;;;;;;;18.60;15.63;;;6.50;99.90;;;;;;4878763;29;20242;-78
2023/04/18 01:34:36;;;;;;;16.87;15.10;;;6.50;99.90;;;;;;4879056;29;20301;-75
2023/04/18 01:37:04;;;;;;;17.83;15.93;;;6.50;99.90;;;;;;4878891;29;20326;-77
2023/04/18 01:39:32;;;;;;;19.10;17.10;;;6.50;99.90;;;;;;4878214;29;20217;-78
2023/04/18 01:42:03;;;;;;;21.90;17.40;;;6.60;99.90;;;;;;4878464;29;20242;-79
2023/04/18 01:44:31;;;;;;;20.87;17.77;;;6.60;99.90;;;;;;4878531;29;20314;-74
2023/04/18 01:46:59;;;;;;;20.10;17.70;;;6.50;99.90;;;;;;4885849;29;20224;-75
2023/04/18 01:49:27;;;;;;;19.67;17.57;;;6.50;99.90;;;;;;4897090;29;20404;-79
2023/04/18 01:51:55;;;;;;;20.40;18.23;;;6.60;99.90;;;;;;4896764;29;20213;-76
2023/04/18 01:54:24;;;;;;;19.30;17.40;;;6.50;99.90;;;;;;4888128;29;20301;-76
2023/04/18 01:56:52;;;;;;;21.27;18.97;;;6.50;99.90;;;;;;4878325;29;20214;-75
2023/04/18 01:59:21;;;;;;;20.97;18.60;;;6.50;99.90;;;;;;4878029;29;20218;-78
2023/04/18 02:01:49;;;;;;;22.10;19.70;;;6.50;99.90;;;;;;4877862;29;20249;-77
2023/04/18 02:04:17;;;;;;;22.13;19.33;;;6.50;99.90;;;;;;4878482;29;20206;-77
2023/04/18 02:06:46;;;;;;;22.90;20.50;;;6.50;99.90;;;;;;4881998;29;20221;-73
2023/04/18 02:09:14;;;;;;;24.17;21.23;;;6.50;99.90;;;;;;4882102;29;20580;-75
2023/04/18 02:11:42;;;;;;;23.80;20.37;;;6.50;99.90;;;;;;4882268;29;20236;-77
2023/04/18 02:14:10;;;;;;;22.70;20.27;;;6.50;99.90;;;;;;4882844;29;20233;-75
2023/04/18 02:16:40;;;;;;;24.20;21.40;;;6.50;99.90;;;;;;4881938;29;20278;-78
2023/04/18 02:19:08;;;;;;;22.97;20.50;;;6.50;99.90;;;;;;4881199;29;20732;-77
2023/04/18 02:21:36;;;;;;;24.07;21.53;;;6.50;99.90;;;;;;4881172;29;20216;-78
2023/04/18 02:24:04;;;;;;;24.13;21.63;;;6.50;99.90;;;;;;4881592;29;20221;-78
2023/04/18 02:26:32;;;;;;;25.77;20.87;;;6.40;99.90;;;;;;4881769;29;20221;-77
2023/04/18 02:29:02;;;;;;;24.00;21.50;;;6.40;99.90;;;;;;4881390;29;20245;-77
2023/04/18 02:31:32;;;;;;;23.87;21.37;;;6.40;99.90;;;;;;4881252;29;20275;-78
2023/04/18 02:34:01;;;;;;;24.23;21.73;;;6.40;99.90;;;;;;4881210;29;20229;-77
2023/04/18 02:36:29;;;;;;;24.73;21.77;;;6.40;99.90;;;;;;4881390;29;20214;-79
2023/04/18 02:38:57;;;;;;;23.93;21.37;;;6.40;99.90;;;;;;4881590;29;20214;-76
2023/04/18 02:41:25;;;;;;;24.50;21.70;;;6.40;99.90;;;;;;4881302;29;20218;-78
2023/04/18 02:43:54;;;;;;;24.63;21.97;;;6.40;99.90;;;;;;4880881;29;20214;-74
2023/04/18 02:46:22;;;;;;;25.43;22.60;;;6.40;99.90;;;;;;4886557;29;20331;-74
2023/04/18 02:48:50;;;;;;;24.33;21.73;;;6.30;99.90;;;;;;4881159;29;20221;-76
2023/04/18 02:51:20;;;;;;;24.83;22.17;;;6.30;99.90;;;;;;4886263;29;20638;-74
2023/04/18 02:53:48;;;;;;;23.83;21.23;;;6.20;99.90;;;;;;4881934;29;20234;-80
2023/04/18 02:56:16;;;;;;;25.50;22.53;;;6.20;99.90;;;;;;4881160;29;20214;-78
2023/04/18 02:58:44;;;;;;;26.80;23.40;;;6.10;99.90;;;;;;4898754;29;20238;-75
2023/04/18 03:01:12;;;;;;;27.33;23.67;;;6.00;99.90;;;;;;4881828;29;20923;-78
2023/04/18 03:03:40;;;;;;;25.60;22.40;;;6.00;99.90;;;;;;4881693;29;20653;-76
2023/04/18 03:06:08;;;;;;;26.03;23.13;;;6.10;99.90;;;;;;4881324;29;20218;-74
2023/04/18 03:08:38;;;;;;;26.17;22.27;;;6.10;99.90;;;;;;4881008;29;20217;-75
2023/04/18 03:11:06;;;;;;;25.37;22.67;;;6.00;99.90;;;;;;4881098;29;20317;-75
2023/04/18 03:13:35;;;;;;;25.50;22.77;;;6.00;99.90;;;;;;4880338;29;20317;-79
2023/04/18 03:16:03;;;;;;;27.60;23.40;;;6.00;99.90;;;;;;4880154;29;20636;-74
2023/04/18 03:18:31;;;;;;;26.07;23.33;;;6.00;99.90;;;;;;4880702;29;20241;-75
2023/04/18 03:20:59;;;;;;;25.67;22.40;;;6.00;99.90;;;;;;4880840;29;20222;-73
2023/04/18 03:23:27;;;;;;;27.17;24.27;;;6.00;99.90;;;;;;4881011;29;20214;-75
2023/04/18 03:25:57;;;;;;;27.43;23.70;;;5.90;99.90;;;;;;4881065;29;20681;-74
2023/04/18 03:28:25;;;;;;;26.03;23.23;;;5.90;99.90;;;;;;4881079;29;20210;-75
2023/04/18 03:30:53;;;;;;;28.03;23.60;;;6.00;99.90;;;;;;4880475;29;20221;-77
2023/04/18 03:33:22;;;;;;;28.57;24.10;;;6.00;99.90;;;;;;4880007;29;20230;-74
2023/04/18 03:35:51;;;;;;;26.37;23.47;;;5.90;99.90;;;;;;4879858;29;20697;-76
2023/04/18 03:38:19;;;;;;;28.27;23.90;;;6.00;99.90;;;;;;4895264;29;20630;-76
2023/04/18 03:40:47;;;;;;;26.83;24.00;;;5.90;99.90;;;;;;4899513;29;20224;-77
2023/04/18 03:43:17;;;;;;;27.50;23.20;;;5.90;99.90;;;;;;4898640;29;20299;-78
2023/04/18 03:45:46;;;;;;;28.10;23.80;;;5.90;99.90;;;;;;4890493;29;20222;-78
2023/04/18 03:48:14;;;;;;;26.77;23.33;;;5.90;99.90;;;;;;4880369;29;20242;-77
2023/04/18 03:50:42;;;;;;;27.47;24.47;;;5.80;99.90;;;;;;4880160;29;20218;-76
2023/04/18 03:53:10;;;;;;;27.30;24.27;;;5.80;99.90;;;;;;4879523;29;20558;-77
2023/04/18 03:55:38;;;;;;;29.00;24.10;;;5.80;99.90;;;;;;4879760;29;20218;-77
2023/04/18 03:58:07;;;;;;;26.87;23.97;;;5.70;99.90;;;;;;4879835;29;20218;-79
2023/04/18 04:00:36;;;;;;;27.80;24.70;;;5.70;99.90;;;;;;4880051;29;20217;-77
2023/04/18 04:03:05;;;;;;;28.70;25.63;;;5.70;99.90;;;;;;4879687;29;20222;-78
2023/04/18 04:05:34;;;;;;;28.73;24.40;;;5.70;99.90;;;;;;4880003;29;20237;-79
2023/04/18 04:08:01;;;;;;;29.00;24.07;;;5.70;99.90;;;;;;4881555;29;20696;-76
2023/04/18 04:10:30;;;;;;;26.47;23.57;;;5.70;99.90;;;;;;4885642;29;20214;-76
2023/04/18 04:12:58;;;;;;;27.23;23.97;;;5.80;99.90;;;;;;4889677;29;20214;-78
2023/04/18 04:15:26;;;;;;;27.80;24.03;;;5.70;99.90;;;;;;4889953;29;20226;-78
2023/04/18 04:17:55;;;;;;;26.20;23.37;;;5.80;99.90;;;;;;4889768;29;20225;-76
2023/04/18 04:20:24;;;;;;;25.73;23.03;;;5.70;99.90;;;;;;4890285;29;20321;-76
2023/04/18 04:22:52;;;;;;;27.60;23.50;;;5.70;99.90;;;;;;4887392;29;20297;-78
2023/04/18 04:25:22;;;;;;;28.57;24.23;;;5.80;99.90;;;;;;4890249;29;20193;-77
2023/04/18 04:27:52;;;;;;;27.93;24.47;;;5.70;99.90;;;;;;4888588;29;20220;-79
2023/04/18 04:30:21;;;;;;;29.40;24.57;;;5.70;99.90;;;;;;4897919;29;20252;-78
2023/04/18 04:32:49;;;;;;;27.70;24.70;;;5.70;99.90;;;;;;4883149;29;20215;-78
2023/04/18 04:35:19;;;;;;;27.50;24.13;;;5.70;99.90;;;;;;4879595;29;20236;-77
2023/04/18 04:37:48;;;;;;;28.17;24.57;;;5.80;99.90;;;;;;4879264;29;20893;-78
2023/04/18 04:40:16;;;;;;;27.23;24.07;;;5.80;99.90;;;;;;4879355;29;20246;-77
2023/04/18 04:42:44;;;;;;;26.97;24.00;;;5.80;99.90;;;;;;4884750;29;20244;-78
2023/04/18 04:45:12;;;;;;;28.43;23.77;;;5.90;99.90;;;;;;4898353;29;20210;-76
2023/04/18 04:47:41;;;;;;;30.70;24.23;;;5.90;99.90;;;;;;4897889;29;20229;-78
2023/04/18 04:50:13;;;;;;;28.90;24.30;;;5.90;99.90;;;;;;4895139;29;20272;-76
2023/04/18 04:52:43;;;;;;;26.07;23.27;;;5.90;99.90;;;;;;4878951;29;20274;-76
2023/04/18 04:55:11;;;;;;;26.53;23.10;;;5.90;99.90;;;;;;4879440;29;20234;-76
2023/04/18 04:57:39;;;;;;;27.40;24.17;;;6.00;99.90;;;;;;4879539;29;20238;-77
2023/04/18 05:00:08;;;;;;;25.93;22.73;;;6.00;99.90;;;;;;4885360;29;20214;-77
2023/04/18 05:02:37;;;;;;;28.13;23.30;;;6.00;99.90;;;;;;4878498;29;20217;-79
2023/04/18 05:05:05;;;;;;;24.50;21.83;;;6.00;99.90;;;;;;4879193;29;20236;-78
2023/04/18 05:07:33;;;;;;;26.13;21.70;;;6.10;99.90;;;;;;4880061;29;20217;-75
2023/04/18 05:10:04;;;;;;;27.40;22.10;;;6.10;99.90;;;;;;4879197;29;20297;-75
2023/04/18 05:12:32;;;;;;;26.30;21.73;;;6.30;99.90;;;;;;4878295;29;20672;-77
2023/04/18 05:15:00;;;;;;;24.90;20.10;;;6.30;99.90;;;;;;4880172;29;20246;-76
2023/04/18 05:17:28;;;;;;;24.27;21.17;;;6.40;99.90;;;;;;4884761;29;20305;-77
2023/04/18 05:19:56;;;;;;;21.87;19.63;;;6.50;99.90;;;;;;4878829;29;20842;-76
2023/04/18 05:22:25;;;;;;;22.60;19.80;;;6.60;99.90;;;;;;4878962;29;20261;-76
2023/04/18 05:24:53;;;;;;;22.23;19.97;;;6.70;99.90;;;;;;4879421;29;20218;-77
2023/04/18 05:27:23;;;;;;;21.90;18.70;;;6.80;99.90;;;;;;4879341;29;20224;-77
2023/04/18 05:29:51;;;;;;;21.67;18.57;;;6.90;99.90;;;;;;4878669;29;20222;-77
2023/04/18 05:32:20;;;;;;;21.60;18.63;;;6.90;99.90;;;;;;4879060;29;20245;-76
2023/04/18 05:34:48;;;;;;;22.33;18.70;;;6.90;99.90;;;;;;4879134;29;20294;-76
2023/04/18 05:37:17;;;;;;;20.00;17.90;;;7.00;99.90;;;;;;4879175;29;20214;-77
2023/04/18 05:39:45;;;;;;;19.83;17.73;;;7.10;99.90;;;;;;4884478;29;20209;-78
2023/04/18 05:42:13;;;;;;;19.63;17.47;;;7.20;99.90;;;;;;4900780;29;20220;-78
2023/04/18 05:44:43;;;;;;;20.20;18.07;;;7.30;99.90;;;;;;4894745;29;20265;-77
2023/04/18 05:47:11;;;;;;;22.83;19.13;;;7.30;99.90;;;;;;4881381;29;20230;-78
2023/04/18 05:49:40;;;;;;;18.90;16.90;;;7.30;99.90;;;;;;4882374;29;20214;-78
2023/04/18 05:52:08;;;;;;;20.87;18.67;;;7.30;99.90;;;;;;4882322;29;20253;-78
2023/04/18 05:54:36;;;;;;;21.30;19.07;;;7.20;99.90;;;;;;4881856;29;20244;-78
2023/04/18 05:57:04;;;;;;;21.33;19.13;;;7.10;99.90;;;;;;4882203;29;20261;-76
2023/04/18 05:59:32;;;;;;;23.03;18.90;;;7.00;99.90;;;;;;4882384;29;20481;-79
2023/04/18 06:02:01;;;;;;;21.77;19.30;;;7.00;99.90;;;;;;4881967;29;20233;-76
2023/04/18 06:04:29;;;;;;;20.70;18.50;;;7.10;99.90;;;;;;4881930;29;20222;-75
2023/04/18 06:06:58;;;;;;;22.23;18.10;;;7.20;99.90;;;;;;4881210;29;20218;-75
2023/04/18 06:09:26;;;;;;;20.43;18.30;;;7.40;99.90;;;;;;4881439;29;20210;-76
2023/04/18 06:11:54;;;;;;;19.93;17.80;;;7.60;99.90;;;;;;4880463;29;20249;-75
2023/04/18 06:14:22;;;;;;;19.70;17.67;;;7.70;99.90;;;;;;4880978;29;20221;-76
2023/04/18 06:16:50;;;;;;;19.30;17.30;;;7.90;99.90;;;;;;4881070;29;20231;-77
2023/04/18 06:19:19;;;;;;;19.70;17.70;;;8.00;99.90;;;;;;4888349;29;20712;-73
2023/04/18 06:21:48;;;;;;;21.00;18.17;;;7.90;99.90;;;;;;4890245;29;20250;-77
2023/04/18 06:24:16;;;;;;;18.43;16.40;;;7.90;99.90;;;;;;4898078;29;20210;-76
2023/04/18 06:26:46;;;;;;;18.63;16.63;;;7.90;99.90;;;;;;4898291;29;20214;-77
2023/04/18 06:29:16;;;;;;;18.80;16.83;;;7.90;99.90;;;;;;4883293;29;20302;-76
2023/04/18 06:31:47;;;;;;;19.60;17.50;;;8.00;99.90;;;;;;4879663;29;20306;-78
2023/04/18 06:34:15;;;;;;;19.77;16.80;;;8.00;99.90;;;;;;4880331;29;20206;-75
2023/04/18 06:36:44;;;;;;;19.73;17.63;;;8.00;99.90;;;;;;4880535;29;20690;-76
2023/04/18 06:39:12;;;;;;;19.50;17.33;;;7.90;99.90;;;;;;4880761;29;20218;-77
2023/04/18 06:41:40;;;;;;;21.30;18.30;;;7.90;99.90;;;;;;4885171;29;20229;-74
2023/04/18 06:44:09;;;;;;;19.73;17.60;;;8.00;99.90;;;;;;4881468;29;20218;-74
2023/04/18 06:46:37;;;;;;;19.90;17.80;;;8.00;99.90;;;;;;4885850;29;20229;-76
2023/04/18 06:49:05;;;;;;;20.23;17.80;;;7.90;99.90;;;;;;4892037;29;20206;-74
2023/04/18 06:51:33;;;;;;;19.70;17.60;;;7.90;99.90;;;;;;4891318;29;20203;-73
2023/04/18 06:54:03;;;;;;;19.33;17.20;;;7.90;99.90;;;;;;4889121;29;20692;-76
2023/04/18 06:56:33;;;;;;;18.30;16.40;;;8.10;99.90;;;;;;4893468;29;20278;-74
2023/04/18 06:59:03;;;;;;;20.67;17.63;;;8.30;99.90;;;;;;4883504;29;20202;-78
2023/04/18 07:01:32;;;;;;;19.47;17.03;;;8.50;99.90;;;;;;4902567;29;20234;-74
2023/04/18 07:04:01;;;;;;;17.80;15.90;;;8.60;99.90;;;;;;4884120;29;20218;-77
2023/04/18 07:06:29;;;;;;;17.87;15.97;;;8.80;99.90;;;;;;4881079;29;20221;-75
2023/04/18 07:08:59;;;;;;;17.43;15.60;;;8.90;99.90;;;;;;4880900;29;20218;-79
2023/04/18 07:11:29;;;;;;;18.00;16.10;;;9.00;99.90;;;;;;4880629;29;20756;-78
2023/04/18 07:13:57;;;;;;;17.53;15.40;;;9.20;99.90;;;;;;4880152;29;20215;-79
2023/04/18 07:16:25;;;;;;;16.50;14.77;;;9.30;99.90;;;;;;4880440;29;20230;-79
2023/04/18 07:18:53;;;;;;;16.83;15.03;;;9.30;99.90;;;;;;4880569;29;20325;-77
2023/04/18 07:21:22;;;;;;;19.47;14.93;;;9.40;99.90;;;;;;4880187;29;20810;-79
2023/04/18 07:23:50;;;;;;;15.90;14.20;;;9.50;99.90;;;;;;4880006;29;20222;-79
2023/04/18 07:26:19;;;;;;;17.23;13.93;;;9.50;99.90;;;;;;4880776;29;20301;-74
2023/04/18 07:28:49;;;;;;;15.80;14.20;;;9.80;99.90;;;;;;4881137;29;20236;-73
2023/04/18 07:31:18;;;;;;;16.30;14.23;;;9.80;99.90;;;;;;4883274;29;20220;-73
2023/04/18 07:33:46;;;;;;;15.83;14.00;;;10.10;99.90;;;;;;4899202;29;20715;-73
2023/04/18 07:36:14;;;;;;;18.40;14.87;;;10.30;99.90;;;;;;4899495;29;20238;-73
2023/04/18 07:38:43;;;;;;;16.60;14.80;;;10.40;99.90;;;;;;4899355;29;20226;-77
2023/04/18 07:41:11;;;;;;;18.00;16.10;;;10.40;99.90;;;;;;4890884;29;20687;-76
2023/04/18 07:43:39;;;;;;;18.07;15.27;;;10.30;99.90;;;;;;4880463;29;20214;-77
2023/04/18 07:46:09;;;;;;;15.83;13.93;;;10.30;99.90;;;;;;4880317;29;20693;-78
2023/04/18 07:48:37;;;;;;;15.33;13.73;;;10.40;99.90;;;;;;4880319;29;20214;-79
2023/04/18 07:51:05;;;;;;;15.10;13.50;;;10.50;99.90;;;;;;4880544;29;20217;-79
2023/04/18 07:53:33;;;;;;;16.50;14.30;;;10.50;99.90;;;;;;4881379;29;20438;-78
2023/04/18 07:56:01;;;;;;;16.33;14.63;;;10.40;99.90;;;;;;4880136;29;20227;-76
2023/04/18 07:58:29;;;;;;;16.43;14.73;;;10.50;99.90;;;;;;4880649;29;20218;-77
2023/04/18 08:00:57;;;;;;;16.23;14.53;;;10.50;99.90;;;;;;4880183;29;20250;-75
2023/04/18 08:03:28;;;;;;;16.23;13.90;;;10.60;99.90;;;;;;4879893;29;20200;-75
2023/04/18 08:05:57;;;;;;;18.30;14.70;;;10.50;99.90;;;;;;4880194;29;20609;-78
2023/04/18 08:08:24;;;;;;;15.40;13.80;;;10.40;99.90;;;;;;4879604;29;20707;-78
2023/04/18 08:10:52;;;;;;;16.70;14.30;;;10.60;99.90;;;;;;4880149;29;20301;-76
2023/04/18 08:13:21;;;;;;;17.63;14.47;;;10.60;99.90;;;;;;4879660;29;20218;-78
2023/04/18 08:15:49;;;;;;;16.37;14.40;;;10.30;99.90;;;;;;4880180;29;20647;-78
2023/04/18 08:18:18;;;;;;;15.27;13.63;;;10.40;99.90;;;;;;4880827;29;20225;-78
2023/04/18 08:20:48;;;;;;;15.30;13.70;;;10.60;99.90;;;;;;4880942;29;20246;-78
2023/04/18 08:23:16;;;;;;;16.63;14.33;;;10.70;99.90;;;;;;4880941;29;20221;-78
2023/04/18 08:25:44;;;;;;;15.60;13.63;;;10.80;99.90;;;;;;4880306;29;20215;-79
2023/04/18 08:28:13;;;;;;;14.97;13.20;;;10.90;99.90;;;;;;4880715;29;20306;-76
2023/04/18 08:30:42;;;;;;;16.27;13.53;;;10.70;99.90;;;;;;4880300;29;20257;-80
2023/04/18 08:33:10;;;;;;;15.33;13.07;;;10.60;99.90;;;;;;4879729;29;20648;-79
2023/04/18 08:35:38;;;;;;;16.57;13.90;;;10.60;99.90;;;;;;4879455;29;20206;-79
2023/04/18 08:38:09;;;;;;;16.23;14.10;;;10.40;99.90;;;;;;4893151;29;20620;-77
2023/04/18 08:40:40;;;;;;;17.60;13.80;;;10.60;99.90;;;;;;4894673;29;20207;-78
2023/04/18 08:43:11;;;;;;;15.30;13.17;;;10.50;99.90;;;;;;4879474;29;20301;-78
2023/04/18 08:45:39;;;;;;;17.57;14.00;;;10.90;99.90;;;;;;4879641;29;20205;-77
2023/04/18 08:48:11;;;;;;;16.10;13.97;;;11.00;99.90;;;;;;4879380;29;20242;-78
2023/04/18 08:50:40;;;;;;;15.20;13.33;;;11.10;99.90;;;;;;4879822;29;20266;-79
2023/04/18 08:53:10;;;;;;;16.30;13.07;;;11.20;99.90;;;;;;4879484;29;20641;-78
2023/04/18 08:55:39;;;;;;;15.10;12.90;;;11.50;99.90;;;;;;4879889;29;20214;-78
2023/04/18 08:58:07;;;;;;;17.10;12.67;;;11.80;99.90;;;;;;4879889;29;20210;-78
2023/04/18 09:00:35;;;;;;;15.70;13.53;;;11.70;99.90;;;;;;4879444;29;20215;-79
2023/04/18 09:03:03;;;;;;;13.47;12.07;;;11.60;99.90;;;;;;4878937;29;20222;-75
2023/04/18 09:05:32;;;;;;;14.23;12.67;;;11.50;99.90;;;;;;4879455;29;20586;-79
2023/04/18 09:08:24;;;;;;;15.37;12.57;;;11.50;99.90;;;;;;4879732;29;20242;-77
2023/04/18 09:10:53;;;;;;;14.20;12.57;;;11.30;99.90;;;;;;4879312;29;20226;-77
2023/04/18 09:13:39;;;;;;;16.03;13.10;;;11.10;99.90;;;;;;4878673;29;20221;-74
2023/04/18 09:16:07;;;;;;;14.13;12.07;;;11.10;99.90;;;;;;4878933;29;20301;-79
2023/04/18 09:18:35;;;;;;;15.73;12.70;;;10.90;99.90;;;;;;4879287;29;20230;-78
2023/04/18 09:21:18;;;;;;;14.17;12.50;;;10.90;99.90;;;;;;4882981;29;20229;-77
2023/04/18 09:23:49;;;;;;;15.03;13.27;;;10.80;99.90;;;;;;4880721;29;20739;-76
2023/04/18 09:26:32;;;;;;;15.00;12.73;;;10.90;99.90;;;;;;4878887;29;20681;-76
2023/04/18 09:29:02;;;;;;;16.70;11.93;;;11.20;99.90;;;;;;4879304;29;20492;-77
2023/04/18 09:31:30;;;;;;;12.90;10.77;;;11.40;99.90;;;;;;4880041;29;20210;-75
2023/04/18 09:33:59;;;;;;;13.03;10.07;;;11.50;99.90;;;;;;4879468;29;20218;-78
2023/04/18 09:36:27;;;;;;;13.10;10.13;;;11.30;99.90;;;;;;4890592;29;20324;-79
2023/04/18 09:38:57;;;;;;;11.17;9.90;;;11.40;99.90;;;;;;4897883;29;20229;-79
2023/04/18 09:41:25;;;;;;;12.67;10.60;;;11.60;99.90;;;;;;4897612;29;20240;-76
2023/04/18 09:44:10;;;;;;;11.00;9.80;;;11.70;99.90;;;;;;4878730;29;20305;-76
2023/04/18 09:46:42;;;;;;;11.53;9.80;;;11.70;99.90;;;;;;4878587;29;20226;-79
2023/04/18 09:49:14;;;;;;;11.67;9.67;;;11.90;99.90;;;;;;4878445;29;20205;-78
2023/04/18 09:51:43;;;;;;;11.37;9.80;;;12.00;99.90;;;;;;4879139;29;20312;-78
2023/04/18 09:54:15;;;;;;;12.27;10.00;;;12.30;99.90;;;;;;4878697;29;20224;-77
2023/04/18 09:56:44;;;;;;;10.97;9.67;;;12.50;99.90;;;;;;4878402;29;20725;-76
2023/04/18 09:59:12;;;;;;;12.27;9.60;;;12.30;99.90;;;;;;4878499;29;20252;-77
2023/04/18 10:01:43;;;;;;;11.07;9.67;;;12.00;99.90;;;;;;4878261;29;20241;-77
2023/04/18 10:04:12;;;;;;;12.03;9.63;;;11.90;99.90;;;;;;4878711;29;20603;-78
2023/04/18 10:06:41;;;;;;;10.33;9.20;;;12.00;99.90;;;;;;4878537;29;20651;-77
2023/04/18 10:09:12;;;;;;;13.73;9.53;;;12.10;99.90;;;;;;4878742;29;20229;-77
2023/04/18 10:11:40;;;;;;;11.10;9.47;;;12.30;99.90;;;;;;4879265;29;20574;-77
2023/04/18 10:14:11;;;;;;;11.53;9.47;;;12.40;99.90;;;;;;4878616;29;20218;-76
2023/04/18 10:16:41;;;;;;;13.13;9.27;;;12.70;99.90;;;;;;4879395;29;20286;-74
2023/04/18 10:19:23;;;;;;;12.83;9.77;;;12.90;99.90;;;;;;4878139;29;20720;-74
2023/04/18 10:21:56;;;;;;;11.13;9.77;;;12.50;99.90;;;;;;4878214;29;20242;-78
2023/04/18 10:24:48;;;;;;;13.43;9.67;;;12.60;99.90;;;;;;4879089;29;20203;-75
2023/04/18 10:27:17;;;;;;;11.30;9.50;;;12.70;99.90;;;;;;4881779;29;20246;-75
2023/04/18 10:29:49;;;;;;;11.47;9.77;;;12.50;99.90;;;;;;4881708;29;20280;-74
2023/04/18 10:32:19;;;;;;;12.40;10.67;;;12.60;99.90;;;;;;4881456;29;20218;-73
2023/04/18 10:34:48;;;;;;;12.83;10.13;;;12.50;99.90;;;;;;4891375;29;20253;-79
2023/04/18 10:37:17;;;;;;;10.93;9.63;;;12.50;99.90;;;;;;4895858;29;20233;-78
2023/04/18 10:39:57;;;;;;;11.97;9.97;;;12.50;99.90;;;;;;4881690;29;20283;-75
2023/04/18 10:42:58;;;;;;;10.93;9.30;;;12.30;99.90;;;;;;4881027;29;20685;-78
2023/04/18 10:45:30;;;;;;;11.10;9.20;;;12.20;99.90;;;;;;4881794;29;20202;-73
2023/04/18 10:48:24;;;;;;;11.70;9.30;;;12.20;99.90;;;;;;4881611;29;20217;-78
2023/04/18 10:51:15;;;;;;;10.20;8.90;;;12.20;99.90;;;;;;4881663;29;20210;-75
2023/04/18 10:53:49;;;;;;;11.07;9.10;;;12.00;99.90;;;;;;4881086;29;20736;-73
2023/04/18 10:56:19;;;;;;;11.63;9.03;;;11.90;99.90;;;;;;4880707;29;20266;-77
2023/04/18 10:58:51;;;;;;;10.80;9.43;;;11.90;99.90;;;;;;4880919;29;20238;-77
2023/04/18 11:01:26;;;;;;;11.20;9.33;;;11.90;99.90;;;;;;4880710;29;20219;-77
2023/04/18 11:04:00;;;;;;;10.03;8.57;;;11.80;99.90;;;;;;4881334;29;20203;-76
2023/04/18 11:06:30;;;;;;;11.13;8.90;;;11.90;99.90;;;;;;4881211;29;20218;-74
2023/04/18 11:09:10;;;;;;;11.57;8.90;;;12.00;99.90;;;;;;4881549;29;20217;-77
2023/04/18 11:11:40;;;;;;;9.27;8.17;;;11.80;99.90;;;;;;4881663;29;20253;-78
2023/04/18 11:14:08;;;;;;;10.43;8.23;;;11.80;99.90;;;;;;4881417;29;20222;-78
2023/04/18 11:16:37;;;;;;;10.70;9.20;;;11.80;99.90;;;;;;4881870;29;20646;-77
2023/04/18 11:19:22;;;;;;;11.17;8.83;;;11.80;99.90;;;;;;4881383;29;20238;-77
2023/04/18 11:21:51;;;;;;;9.60;7.87;;;11.60;99.90;;;;;;4881444;29;20760;-75
2023/04/18 11:24:23;;;;;;;9.23;7.37;;;11.70;99.90;;;;;;4881188;29;20214;-77
2023/04/18 11:26:54;;;;;;;8.03;7.03;;;11.90;99.90;;;;;;4881616;29;20221;-77
2023/04/18 11:29:23;;;;;;;8.57;7.57;;;12.00;99.90;;;;;;4881603;29;20595;-73
2023/04/18 11:31:53;;;;;;;8.73;7.20;;;11.70;99.90;;;;;;4881045;29;20218;-74
2023/04/18 11:34:30;;;;;;;9.37;7.20;;;11.70;99.90;;;;;;4899633;29;20592;-75
2023/04/18 11:36:58;;;;;;;8.10;6.80;;;11.70;99.90;;;;;;4899688;29;20613;-75
2023/04/18 11:39:26;;;;;;;7.67;6.37;;;11.60;99.90;;;;;;4899440;29;20591;-74
2023/04/18 11:41:57;;;;;;;7.43;6.10;;;11.40;99.90;;;;;;4895860;29;20549;-74
2023/04/18 11:44:26;;;;;;;7.47;6.23;;;11.40;99.90;;;;;;4880837;29;20234;-77
2023/04/18 11:46:54;;;;;;;7.60;5.83;;;11.30;99.90;;;;;;4880827;29;20218;-75
2023/04/18 11:49:29;;;;;;;7.43;6.63;;;11.30;99.90;;;;;;4880598;29;20242;-76
2023/04/18 11:51:57;;;;;;;8.03;6.40;;;11.20;99.90;;;;;;4882432;29;20277;-77
2023/04/18 11:54:39;;;;;;;8.63;6.70;;;11.20;99.90;;;;;;4880120;29;20216;-77
2023/04/18 11:57:22;;;;;;;8.30;6.40;;;11.10;99.90;;;;;;4880583;29;20218;-78
2023/04/18 11:59:51;;;;;;;8.90;6.63;;;11.30;99.90;;;;;;4880489;29;20308;-77
2023/04/18 12:02:20;;;;;;;7.60;6.43;;;11.40;99.90;;;;;;4879969;29;20218;-76
2023/04/18 12:04:51;;;;;;;7.70;6.47;;;11.60;99.90;;;;;;4880392;29;20215;-77
2023/04/18 12:07:37;;;;;;;8.00;6.80;;;11.70;99.90;;;;;;4880026;29;20266;-78
2023/04/18 12:10:08;;;;;;;9.53;7.00;;;11.50;99.90;;;;;;4880127;29;20253;-74
2023/04/18 12:12:37;;;;;;;8.23;6.93;;;11.40;99.90;;;;;;4880004;29;20198;-79
2023/04/18 12:15:09;;;;;;;9.83;7.73;;;11.30;99.90;;;;;;4880664;29;20412;-75
2023/04/18 12:17:37;;;;;;;9.57;7.90;;;11.30;99.90;;;;;;4886394;29;20211;-80
2023/04/18 12:20:08;;;;;;;9.10;7.87;;;11.30;99.90;;;;;;4880925;29;20237;-78
2023/04/18 12:22:38;;;;;;;9.43;7.60;;;11.30;99.90;;;;;;4880373;29;20269;-77
2023/04/18 12:25:18;;;;;;;9.90;7.90;;;11.40;99.90;;;;;;4880505;29;20218;-77
2023/04/18 12:27:54;;;;;;;10.50;8.00;;;11.40;99.90;;;;;;4879445;29;20222;-78
2023/04/18 12:30:24;;;;;;;8.67;7.17;;;11.50;99.90;;;;;;4879503;29;20205;-77
2023/04/18 12:32:54;;;;;;;9.67;7.67;;;11.60;99.90;;;;;;4885342;29;20214;-78
2023/04/18 12:35:23;;;;;;;7.77;6.87;;;11.70;99.90;;;;;;4879904;29;20217;-76
2023/04/18 12:37:53;;;;;;;7.83;6.90;;;11.80;99.90;;;;;;4879975;29;20728;-78
2023/04/18 12:40:23;;;;;;;7.80;6.57;;;12.00;99.90;;;;;;4879636;29;20209;-76
2023/04/18 12:42:53;;;;;;;8.07;6.53;;;12.10;99.90;;;;;;4880220;29;20692;-78
2023/04/18 12:45:22;;;;;;;8.00;6.53;;;12.30;99.90;;;;;;4880523;29;20353;-78
2023/04/18 12:47:52;;;;;;;8.97;6.50;;;12.30;99.90;;;;;;4880353;29;20226;-77
2023/04/18 12:50:22;;;;;;;8.37;6.53;;;12.40;99.90;;;;;;4880597;29;20221;-74